createdAt,value
2023-05-05T00:01:48.232Z,10.05
2023-05-05T00:04:17.962Z,10.02
2023-05-05T00:06:46.424Z,9.96
2023-05-05T00:09:14.395Z,9.89
2023-05-05T00:11:42.279Z,9.79
2023-05-05T00:14:11.169Z,9.75
2023-05-05T00:16:39.072Z,9.69
2023-05-05T00:19:06.919Z,9.60
2023-05-05T00:21:34.766Z,9.52
2023-05-05T00:24:02.812Z,9.45
2023-05-05T00:26:31.035Z,9.39
2023-05-05T00:28:58.787Z,9.36
2023-05-05T00:31:27.082Z,9.37
2023-05-05T00:33:55.032Z,9.37
2023-05-05T00:36:23.020Z,9.32
2023-05-05T00:38:50.814Z,9.30
2023-05-05T00:41:18.579Z,9.31
2023-05-05T00:43:46.358Z,9.32
2023-05-05T00:46:26.594Z,9.33
2023-05-05T00:48:55.295Z,9.33
2023-05-05T00:51:25.700Z,9.31
2023-05-05T00:53:53.724Z,9.29
2023-05-05T00:56:22.275Z,9.25
2023-05-05T00:58:50.290Z,9.21
2023-05-05T01:01:18.648Z,9.14
2023-05-05T01:03:46.606Z,9.11
2023-05-05T01:06:36.600Z,9.11
2023-05-05T01:09:19.992Z,9.12
2023-05-05T01:12:21.641Z,9.11
2023-05-05T01:15:11.086Z,9.08
2023-05-05T01:17:44.931Z,9.02
2023-05-05T01:20:26.148Z,8.99
2023-05-05T01:23:01.277Z,8.96
2023-05-05T01:25:47.829Z,8.91
2023-05-05T01:28:31.433Z,8.83
2023-05-05T01:31:23.952Z,8.75
2023-05-05T01:34:07.612Z,8.69
2023-05-05T01:36:42.347Z,8.65
2023-05-05T01:39:16.141Z,8.64
2023-05-05T01:41:48.065Z,8.64
2023-05-05T01:44:17.011Z,8.62
2023-05-05T01:46:44.776Z,8.58
2023-05-05T01:49:15.101Z,8.51
2023-05-05T01:51:45.985Z,8.45
2023-05-05T01:54:15.330Z,8.40
2023-05-05T01:56:43.657Z,8.37
2023-05-05T01:59:12.380Z,8.36
2023-05-05T02:01:41.864Z,8.36
2023-05-05T02:04:13.164Z,8.38
2023-05-05T02:06:43.133Z,8.42
2023-05-05T02:09:12.850Z,8.43
2023-05-05T02:11:41.402Z,8.45
2023-05-05T02:14:10.745Z,8.44
2023-05-05T02:16:41.463Z,8.39
2023-05-05T02:19:12.174Z,8.32
2023-05-05T02:21:41.197Z,8.25
2023-05-05T02:24:09.182Z,8.20
2023-05-05T02:26:40.644Z,8.18
2023-05-05T02:29:17.912Z,8.16
2023-05-05T02:31:49.985Z,8.14
2023-05-05T02:34:22.657Z,8.11
2023-05-05T02:36:54.538Z,8.09
2023-05-05T02:39:30.715Z,8.09
2023-05-05T02:42:03.410Z,8.09
2023-05-05T02:44:34.644Z,8.07
2023-05-05T02:47:04.922Z,8.02
2023-05-05T02:49:32.646Z,8.02
2023-05-05T02:52:01.108Z,8.04
2023-05-05T02:54:33.324Z,8.05
2023-05-05T02:57:01.960Z,8.01
2023-05-05T02:59:53.166Z,7.93
2023-05-05T03:02:59.889Z,7.85
2023-05-05T03:05:38.254Z,7.81
2023-05-05T03:08:14.093Z,7.74
2023-05-05T03:10:52.492Z,7.71
2023-05-05T03:13:22.673Z,7.69
2023-05-05T03:15:53.448Z,7.65
2023-05-05T03:18:24.177Z,7.62
2023-05-05T03:20:52.570Z,7.63
2023-05-05T03:23:22.743Z,7.65
2023-05-05T03:25:50.696Z,7.69
2023-05-05T03:28:18.608Z,7.72
2023-05-05T03:30:46.580Z,7.75
2023-05-05T03:33:16.573Z,7.76
2023-05-05T03:35:44.372Z,7.77
2023-05-05T03:38:12.302Z,7.80
2023-05-05T03:40:44.138Z,7.85
2023-05-05T03:43:13.042Z,7.92
2023-05-05T03:45:40.893Z,7.99
2023-05-05T03:48:09.987Z,8.02
2023-05-05T03:50:37.894Z,8.04
2023-05-05T03:53:05.811Z,8.07
2023-05-05T03:55:33.711Z,8.10
2023-05-05T03:58:01.518Z,8.11
2023-05-05T04:00:29.350Z,8.11
2023-05-05T04:02:57.526Z,8.12
2023-05-05T04:05:26.427Z,8.14
2023-05-05T04:07:54.345Z,8.19
2023-05-05T04:10:22.119Z,8.20
2023-05-05T04:12:50.000Z,8.21
2023-05-05T04:15:18.758Z,8.23
2023-05-05T04:17:46.719Z,8.21
2023-05-05T04:20:15.201Z,8.22
2023-05-05T04:22:43.265Z,8.24
2023-05-05T04:25:11.345Z,8.26
2023-05-05T04:27:39.970Z,8.24
2023-05-05T04:30:09.691Z,8.21
2023-05-05T04:32:37.589Z,8.17
2023-05-05T04:35:06.139Z,8.18
2023-05-05T04:37:34.029Z,8.20
2023-05-05T04:40:02.058Z,8.22
2023-05-05T04:42:30.624Z,8.25
2023-05-05T04:44:58.365Z,8.29
2023-05-05T04:47:26.260Z,8.33
2023-05-05T04:49:57.329Z,8.34
2023-05-05T04:52:25.731Z,8.35
2023-05-05T04:54:53.615Z,8.36
2023-05-05T04:57:21.830Z,8.37
2023-05-05T04:59:49.710Z,8.37
2023-05-05T05:02:17.628Z,8.37
2023-05-05T05:04:45.431Z,8.39
2023-05-05T05:07:15.160Z,8.43
2023-05-05T05:09:43.164Z,8.49
2023-05-05T05:12:11.192Z,8.58
2023-05-05T05:14:40.070Z,8.70
2023-05-05T05:17:07.975Z,8.80
2023-05-05T05:19:35.884Z,8.88
2023-05-05T05:22:03.874Z,8.94
2023-05-05T05:24:31.816Z,9.05
2023-05-05T05:26:59.739Z,9.16
2023-05-05T05:29:27.667Z,9.26
2023-05-05T05:31:55.961Z,9.34
2023-05-05T05:34:24.229Z,9.41
2023-05-05T05:36:52.311Z,9.48
2023-05-05T05:39:20.121Z,9.53
2023-05-05T05:41:47.963Z,9.60
2023-05-05T05:44:15.898Z,9.67
2023-05-05T05:46:43.917Z,9.75
2023-05-05T05:49:12.064Z,9.81
2023-05-05T05:51:39.910Z,9.86
2023-05-05T05:54:07.880Z,9.89
2023-05-05T05:56:35.751Z,9.91
2023-05-05T05:59:04.901Z,9.94
2023-05-05T06:01:33.039Z,10.00
2023-05-05T06:04:01.552Z,10.03
2023-05-05T06:06:29.811Z,10.07
2023-05-05T06:08:57.607Z,10.13
2023-05-05T06:11:27.848Z,10.23
2023-05-05T06:13:55.819Z,10.34
2023-05-05T06:16:23.716Z,10.47
2023-05-05T06:18:51.768Z,10.61
2023-05-05T06:21:22.681Z,10.74
2023-05-05T06:23:51.066Z,10.85
2023-05-05T06:26:18.944Z,11.00
2023-05-05T06:28:46.827Z,11.15
2023-05-05T06:31:14.890Z,11.29
2023-05-05T06:33:42.936Z,11.43
2023-05-05T06:36:13.095Z,11.52
2023-05-05T06:38:41.404Z,11.61
2023-05-05T06:41:09.187Z,11.73
2023-05-05T06:43:37.002Z,11.85
2023-05-05T06:46:05.050Z,11.96
2023-05-05T06:48:32.908Z,12.08
2023-05-05T06:51:00.755Z,12.19
2023-05-05T06:53:28.660Z,12.30
2023-05-05T06:55:56.651Z,12.40
2023-05-05T06:58:24.736Z,12.53
2023-05-05T07:00:52.627Z,12.67
2023-05-05T07:03:20.870Z,12.78
2023-05-05T07:05:48.712Z,12.89
2023-05-05T07:08:16.441Z,12.99
2023-05-05T07:10:44.349Z,13.10
2023-05-05T07:13:13.720Z,13.24
2023-05-05T07:15:46.841Z,13.39
2023-05-05T07:18:16.188Z,13.50
2023-05-05T07:20:44.579Z,13.62
2023-05-05T07:23:12.940Z,13.74
2023-05-05T07:25:40.976Z,13.84
2023-05-05T07:28:08.883Z,13.92
2023-05-05T07:30:36.794Z,14.05
2023-05-05T07:33:04.827Z,14.21
2023-05-05T07:35:32.961Z,14.39
2023-05-05T07:38:01.008Z,14.54
2023-05-05T07:40:29.086Z,14.68
2023-05-05T07:42:57.049Z,14.85
2023-05-05T07:45:24.974Z,15.04
2023-05-05T07:47:52.909Z,15.20
2023-05-05T07:50:21.051Z,15.32
2023-05-05T07:52:54.021Z,15.47
2023-05-05T07:55:30.080Z,15.62
2023-05-05T07:57:57.823Z,15.79
2023-05-05T08:00:25.824Z,15.95
2023-05-05T08:02:55.616Z,16.12
2023-05-05T08:05:23.619Z,16.25
2023-05-05T08:07:51.533Z,16.40
2023-05-05T08:10:22.024Z,16.55
2023-05-05T08:12:49.939Z,16.67
2023-05-05T08:15:17.918Z,16.81
2023-05-05T08:17:51.571Z,16.91
2023-05-05T08:20:20.705Z,16.95
2023-05-05T08:22:51.752Z,17.06
2023-05-05T08:25:19.715Z,17.24
2023-05-05T08:27:47.695Z,17.43
2023-05-05T08:30:17.410Z,17.52
2023-05-05T08:32:45.385Z,17.63
2023-05-05T08:35:13.535Z,17.80
2023-05-05T08:37:43.725Z,17.98
2023-05-05T08:40:15.936Z,18.15
2023-05-05T08:42:45.789Z,18.31
2023-05-05T08:45:13.723Z,18.36
2023-05-05T08:47:43.539Z,18.44
2023-05-05T08:50:11.943Z,18.44
2023-05-05T08:52:44.799Z,18.31
2023-05-05T08:55:14.842Z,18.19
2023-05-05T08:57:48.350Z,18.22
2023-05-05T09:00:19.793Z,18.35
2023-05-05T09:02:48.215Z,18.53
2023-05-05T09:05:16.900Z,18.68
2023-05-05T09:07:45.279Z,18.70
2023-05-05T09:10:13.263Z,18.61
2023-05-05T09:12:41.744Z,18.67
2023-05-05T09:15:11.714Z,18.81
2023-05-05T09:17:40.740Z,18.95
2023-05-05T09:20:11.201Z,19.10
2023-05-05T09:22:41.361Z,19.21
2023-05-05T09:25:12.136Z,19.38
2023-05-05T09:27:46.465Z,19.61
2023-05-05T09:30:23.678Z,19.69
2023-05-05T09:32:55.568Z,19.80
2023-05-05T09:35:23.750Z,19.92
2023-05-05T09:37:51.608Z,19.93
2023-05-05T09:40:20.726Z,20.07
2023-05-05T09:42:48.626Z,20.24
2023-05-05T09:45:19.384Z,20.38
2023-05-05T09:47:48.256Z,20.53
2023-05-05T09:50:20.517Z,20.74
2023-05-05T09:52:56.639Z,20.78
2023-05-05T09:55:25.404Z,20.61
2023-05-05T09:57:53.301Z,20.37
2023-05-05T10:00:21.306Z,20.19
2023-05-05T10:02:49.218Z,20.00
2023-05-05T10:05:18.675Z,19.80
2023-05-05T10:07:48.170Z,19.59
2023-05-05T10:10:17.835Z,19.50
2023-05-05T10:12:47.619Z,19.68
2023-05-05T10:15:16.718Z,20.01
2023-05-05T10:20:21.876Z,20.68
2023-05-05T10:22:53.633Z,21.04
2023-05-05T10:25:30.772Z,21.40
2023-05-05T10:28:06.485Z,21.52
2023-05-05T10:30:43.321Z,21.51
2023-05-05T10:33:31.718Z,21.51
2023-05-05T10:36:02.955Z,21.33
2023-05-05T10:38:31.951Z,21.09
2023-05-05T10:41:02.014Z,21.11
2023-05-05T10:43:31.469Z,21.29
2023-05-05T10:46:00.701Z,21.53
2023-05-05T10:48:46.163Z,21.84
2023-05-05T10:51:51.326Z,22.15
2023-05-05T10:54:30.589Z,22.40
2023-05-05T10:57:02.643Z,22.66
2023-05-05T10:59:36.834Z,22.87
2023-05-05T11:02:29.673Z,22.94
2023-05-05T11:05:13.612Z,23.00
2023-05-05T11:07:42.681Z,23.00
2023-05-05T11:10:12.509Z,22.94
2023-05-05T11:12:57.853Z,22.75
2023-05-05T11:15:29.252Z,22.46
2023-05-05T11:18:05.714Z,22.16
2023-05-05T11:20:41.099Z,21.84
2023-05-05T11:23:08.902Z,21.56
2023-05-05T11:25:37.183Z,21.31
2023-05-05T11:28:11.317Z,21.16
2023-05-05T11:30:58.491Z,21.21
2023-05-05T11:33:29.212Z,21.42
2023-05-05T11:36:04.267Z,21.68
2023-05-05T11:39:09.425Z,21.85
2023-05-05T11:41:40.341Z,22.00
2023-05-05T11:44:15.772Z,22.18
2023-05-05T11:46:43.663Z,22.48
2023-05-05T11:49:11.654Z,22.79
2023-05-05T11:51:40.176Z,23.12
2023-05-05T11:54:08.261Z,23.40
2023-05-05T11:56:36.314Z,23.65
2023-05-05T11:59:10.667Z,23.92
2023-05-05T12:01:41.858Z,24.12
2023-05-05T12:04:13.752Z,24.20
2023-05-05T12:06:42.216Z,24.08
2023-05-05T12:09:16.993Z,24.02
2023-05-05T12:11:52.621Z,23.98
2023-05-05T12:14:21.508Z,23.91
2023-05-05T12:17:16.609Z,23.74
2023-05-05T12:19:54.552Z,23.46
2023-05-05T12:22:27.407Z,23.23
2023-05-05T12:24:58.374Z,23.03
2023-05-05T12:27:27.794Z,22.82
2023-05-05T12:29:57.482Z,22.66
2023-05-05T12:32:27.941Z,22.55
2023-05-05T12:34:59.600Z,22.46
2023-05-05T12:37:27.740Z,22.37
2023-05-05T12:39:55.733Z,22.31
2023-05-05T12:42:23.611Z,22.27
2023-05-05T12:44:52.238Z,22.22
2023-05-05T12:47:33.312Z,22.17
2023-05-05T12:50:03.162Z,22.13
2023-05-05T12:52:44.783Z,22.05
2023-05-05T12:55:13.336Z,21.85
2023-05-05T12:58:04.694Z,21.72
2023-05-05T13:00:32.623Z,21.55
2023-05-05T13:03:00.491Z,21.40
2023-05-05T13:05:32.687Z,21.34
2023-05-05T13:08:00.664Z,21.33
2023-05-05T13:10:28.628Z,21.33
2023-05-05T13:12:56.923Z,21.30
2023-05-05T13:15:25.930Z,21.24
2023-05-05T13:18:03.203Z,21.26
2023-05-05T13:20:31.221Z,21.33
2023-05-05T13:22:59.205Z,21.38
2023-05-05T13:25:27.155Z,21.42
2023-05-05T13:27:54.914Z,21.46
2023-05-05T13:30:22.881Z,21.46
2023-05-05T13:32:50.911Z,21.44
2023-05-05T13:35:18.819Z,21.43
2023-05-05T13:37:47.545Z,21.46
2023-05-05T13:40:15.557Z,21.52
2023-05-05T13:42:44.108Z,21.59
2023-05-05T13:45:12.360Z,21.60
2023-05-05T13:47:42.080Z,21.61
2023-05-05T13:50:10.269Z,21.62
2023-05-05T13:52:38.615Z,21.61
2023-05-05T13:55:07.322Z,21.61
2023-05-05T13:57:35.440Z,21.64
2023-05-05T14:00:04.440Z,21.68
2023-05-05T14:02:32.308Z,21.71
2023-05-05T14:05:00.170Z,21.75
2023-05-05T14:07:28.134Z,21.82
2023-05-05T14:09:56.004Z,21.87
2023-05-05T14:12:23.979Z,21.83
2023-05-05T14:14:51.846Z,21.76
2023-05-05T14:17:19.869Z,21.72
2023-05-05T14:19:47.868Z,21.68
2023-05-05T14:22:15.679Z,21.66
2023-05-05T14:24:43.601Z,21.67
2023-05-05T14:27:11.500Z,21.65
2023-05-05T14:29:39.470Z,21.58
2023-05-05T14:32:07.351Z,21.48
2023-05-05T14:34:35.337Z,21.48
2023-05-05T14:37:03.426Z,21.53
2023-05-05T14:39:31.408Z,21.58
2023-05-05T14:41:59.343Z,21.62
2023-05-05T14:44:27.291Z,21.55
2023-05-05T14:46:55.131Z,21.48
2023-05-05T14:49:22.975Z,21.43
2023-05-05T14:51:51.693Z,21.37
2023-05-05T14:54:27.995Z,21.34
2023-05-05T14:56:56.829Z,21.29
2023-05-05T14:59:24.734Z,21.18
2023-05-05T15:01:52.924Z,21.06
2023-05-05T15:04:20.883Z,20.97
2023-05-05T15:06:48.716Z,20.96
2023-05-05T15:09:18.250Z,20.99
2023-05-05T15:11:46.160Z,21.01
2023-05-05T15:14:14.008Z,21.04
2023-05-05T15:16:41.974Z,21.05
2023-05-05T15:19:09.828Z,21.09
2023-05-05T15:21:37.685Z,21.18
2023-05-05T15:24:05.937Z,21.37
2023-05-05T15:26:33.855Z,21.87
2023-05-05T15:29:01.654Z,22.69
2023-05-05T15:31:29.616Z,23.53
2023-05-05T15:33:57.508Z,24.34
2023-05-05T15:36:25.542Z,25.15
2023-05-05T15:38:53.473Z,25.70
2023-05-05T15:41:21.456Z,26.02
2023-05-05T15:43:51.770Z,26.14
2023-05-05T15:46:19.675Z,25.94
2023-05-05T15:48:47.576Z,25.47
2023-05-05T15:51:16.299Z,25.08
2023-05-05T15:53:44.239Z,24.77
2023-05-05T15:56:13.325Z,24.48
2023-05-05T15:58:41.184Z,24.18
2023-05-05T16:01:09.282Z,23.86
2023-05-05T16:03:37.244Z,23.68
2023-05-05T16:06:05.169Z,23.55
2023-05-05T16:08:33.148Z,23.28
2023-05-05T16:11:01.417Z,23.04
2023-05-05T16:13:29.407Z,22.95
2023-05-05T16:15:57.423Z,22.92
2023-05-05T16:18:25.385Z,22.90
2023-05-05T16:20:53.880Z,22.99
2023-05-05T16:23:21.683Z,23.29
2023-05-05T16:25:49.636Z,23.62
2023-05-05T16:28:18.573Z,23.73
2023-05-05T16:30:46.403Z,23.64
2023-05-05T16:33:14.346Z,23.49
2023-05-05T16:35:46.214Z,23.45
2023-05-05T16:38:14.735Z,23.51
2023-05-05T16:40:42.671Z,23.49
2023-05-05T16:43:10.746Z,23.45
2023-05-05T16:45:38.502Z,23.57
2023-05-05T16:48:08.916Z,23.61
2023-05-05T16:50:37.177Z,23.45
2023-05-05T16:53:05.040Z,23.14
2023-05-05T16:55:32.923Z,22.79
2023-05-05T16:58:00.769Z,22.41
2023-05-05T17:00:28.628Z,22.03
2023-05-05T17:02:56.980Z,21.71
2023-05-05T17:05:24.918Z,21.39
2023-05-05T17:07:52.788Z,21.09
2023-05-05T17:10:20.854Z,20.83
2023-05-05T17:12:48.764Z,20.58
2023-05-05T17:15:16.692Z,20.32
2023-05-05T17:17:44.549Z,20.07
2023-05-05T17:20:13.119Z,19.83
2023-05-05T17:22:41.097Z,19.60
2023-05-05T17:25:09.684Z,19.41
2023-05-05T17:27:38.300Z,19.24
2023-05-05T17:30:07.254Z,19.09
2023-05-05T17:32:35.168Z,18.95
2023-05-05T17:35:03.154Z,18.84
2023-05-05T17:37:31.336Z,18.72
2023-05-05T17:39:59.302Z,18.60
2023-05-05T17:42:27.995Z,18.49
2023-05-05T17:44:55.905Z,18.40
2023-05-05T17:47:24.311Z,18.30
2023-05-05T17:49:54.183Z,18.18
2023-05-05T17:52:23.168Z,18.08
2023-05-05T17:54:51.955Z,17.98
2023-05-05T17:57:21.263Z,17.88
2023-05-05T17:59:50.067Z,17.78
2023-05-05T18:02:19.128Z,17.69
2023-05-05T18:04:47.375Z,17.60
2023-05-05T18:07:15.413Z,17.50
2023-05-05T18:09:43.315Z,17.39
2023-05-05T18:12:11.271Z,17.26
2023-05-05T18:14:39.179Z,17.12
2023-05-05T18:17:07.098Z,16.99
2023-05-05T18:19:34.879Z,16.88
2023-05-05T18:22:02.686Z,16.76
2023-05-05T18:24:30.935Z,16.65
2023-05-05T18:26:58.849Z,16.55
2023-05-05T18:29:28.345Z,16.46
2023-05-05T18:31:56.381Z,16.36
2023-05-05T18:34:24.283Z,16.29
2023-05-05T18:36:54.768Z,16.23
2023-05-05T18:39:23.717Z,16.16
2023-05-05T18:41:51.792Z,16.08
2023-05-05T18:44:25.449Z,16.01
2023-05-05T18:46:53.299Z,15.95
2023-05-05T18:49:22.119Z,15.89
2023-05-05T18:51:49.915Z,15.81
2023-05-05T18:54:17.881Z,15.74
2023-05-05T18:56:45.746Z,15.67
2023-05-05T18:59:13.812Z,15.60
2023-05-05T19:01:43.028Z,15.52
2023-05-05T19:04:26.759Z,15.41
2023-05-05T19:07:02.052Z,15.29
2023-05-05T19:09:30.359Z,15.17
2023-05-05T19:11:58.210Z,15.07
2023-05-05T19:14:26.223Z,14.99
2023-05-05T19:16:55.855Z,14.90
2023-05-05T19:19:23.854Z,14.80
2023-05-05T19:21:51.842Z,14.69
2023-05-05T19:24:19.565Z,14.58
2023-05-05T19:26:47.303Z,14.45
2023-05-05T19:29:16.247Z,14.33
2023-05-05T19:31:44.149Z,14.25
2023-05-05T19:34:11.943Z,14.19
2023-05-05T19:36:39.773Z,14.16
2023-05-05T19:39:08.276Z,14.13
2023-05-05T19:41:36.327Z,14.11
2023-05-05T19:44:04.341Z,14.08
2023-05-05T19:46:32.124Z,14.07
2023-05-05T19:49:00.021Z,14.04
2023-05-05T19:51:27.956Z,14.01
2023-05-05T19:53:55.794Z,13.98
2023-05-05T19:56:24.006Z,13.96
2023-05-05T19:59:00.376Z,13.93
2023-05-05T20:01:29.196Z,13.90
2023-05-05T20:03:57.320Z,13.88
2023-05-05T20:06:25.673Z,13.84
2023-05-05T20:08:54.767Z,13.80
2023-05-05T20:11:22.670Z,13.76
2023-05-05T20:13:50.989Z,13.72
2023-05-05T20:16:19.344Z,13.64
2023-05-05T20:18:47.509Z,13.57
2023-05-05T20:21:16.909Z,13.49
2023-05-05T20:23:45.959Z,13.45
2023-05-05T20:26:13.984Z,13.41
2023-05-05T20:28:45.113Z,13.35
2023-05-05T20:31:14.653Z,13.27
2023-05-05T20:33:42.668Z,13.15
2023-05-05T20:36:11.216Z,13.04
2023-05-05T20:38:39.058Z,12.93
2023-05-05T20:41:07.130Z,12.84
2023-05-05T20:43:36.357Z,12.77
2023-05-05T20:46:04.304Z,12.71
2023-05-05T20:48:32.299Z,12.67
2023-05-05T20:51:03.913Z,12.64
2023-05-05T20:53:32.847Z,12.62
2023-05-05T20:56:00.957Z,12.62
2023-05-05T20:58:29.835Z,12.63
2023-05-05T21:00:57.736Z,12.65
2023-05-05T21:03:25.734Z,12.66
2023-05-05T21:05:54.367Z,12.68
2023-05-05T21:08:22.365Z,12.69
2023-05-05T21:10:50.198Z,12.70
2023-05-05T21:13:18.180Z,12.69
2023-05-05T21:15:46.331Z,12.67
2023-05-05T21:18:14.274Z,12.64
2023-05-05T21:20:42.105Z,12.60
2023-05-05T21:23:09.995Z,12.55
2023-05-05T21:25:37.866Z,12.52
2023-05-05T21:28:05.949Z,12.47
2023-05-05T21:30:33.806Z,12.43
2023-05-05T21:33:01.989Z,12.37
2023-05-05T21:35:30.059Z,12.31
2023-05-05T21:37:58.053Z,12.24
2023-05-05T21:40:26.208Z,12.18
2023-05-05T21:42:54.093Z,12.14
2023-05-05T21:45:21.984Z,12.09
2023-05-05T21:47:49.977Z,12.07
2023-05-05T21:50:17.992Z,12.04
2023-05-05T21:52:46.087Z,12.04
2023-05-05T21:55:13.943Z,12.05
2023-05-05T21:57:42.318Z,12.04
2023-05-05T22:00:16.717Z,12.03
2023-05-05T22:02:45.497Z,11.99
2023-05-05T22:05:13.504Z,11.96
2023-05-05T22:07:41.445Z,11.95
2023-05-05T22:10:09.747Z,11.92
2023-05-05T22:12:37.990Z,11.91
2023-05-05T22:15:06.787Z,11.89
2023-05-05T22:17:34.867Z,11.84
2023-05-05T22:20:05.126Z,11.80
2023-05-05T22:22:33.075Z,11.74
2023-05-05T22:25:01.081Z,11.69
2023-05-05T22:27:28.889Z,11.64
2023-05-05T22:29:57.221Z,11.61
2023-05-05T22:32:25.235Z,11.59
2023-05-05T22:34:53.144Z,11.55
2023-05-05T22:37:21.441Z,11.51
2023-05-05T22:39:49.317Z,11.46
2023-05-05T22:42:17.250Z,11.42
2023-05-05T22:44:44.998Z,11.37
2023-05-05T22:47:13.418Z,11.31
2023-05-05T22:49:41.308Z,11.27
2023-05-05T22:52:09.383Z,11.24
2023-05-05T22:54:37.147Z,11.21
2023-05-05T22:57:04.956Z,11.18
2023-05-05T22:59:32.849Z,11.15
2023-05-05T23:02:00.784Z,11.12
2023-05-05T23:04:28.728Z,11.10
2023-05-05T23:06:56.852Z,11.07
2023-05-05T23:09:24.674Z,11.06
2023-05-05T23:11:52.792Z,11.06
2023-05-05T23:14:20.731Z,11.04
2023-05-05T23:16:48.604Z,11.01
2023-05-05T23:19:16.476Z,10.94
2023-05-05T23:21:52.835Z,10.84
2023-05-05T23:24:22.266Z,10.72
2023-05-05T23:26:51.921Z,10.63
2023-05-05T23:29:20.063Z,10.56
2023-05-05T23:31:47.976Z,10.49
2023-05-05T23:34:15.780Z,10.46
2023-05-05T23:36:43.788Z,10.46
2023-05-05T23:39:11.825Z,10.44
2023-05-05T23:41:39.538Z,10.41
2023-05-05T23:44:07.344Z,10.39
2023-05-05T23:46:35.351Z,10.33
2023-05-05T23:49:03.212Z,10.30
2023-05-05T23:51:31.439Z,10.26
2023-05-05T23:53:59.575Z,10.22
2023-05-05T23:56:27.406Z,10.18
2023-05-05T23:58:55.274Z,10.16
